Time;durP1;ratioP1;P1;durP2;ratioP2;P2;SDS_P1;SDS_P2;PMS_P1;PMS_P2;Temp;Humidity;BMP_temperature;BMP_pressure;BME280_temperature;BME280_humidity;BME280_pressure;Samples;Min_cycle;Max_cycle;Signal;HPM_P1;HPM_P2
2022/04/14 00:02:26;;;;;;;4.27;3.87;;;;;;;9.77;67.29;99928.59;5114711;27;20655;-65
2022/04/14 00:04:53;;;;;;;4.47;4.17;;;;;;;9.76;66.99;99924.31;5111391;28;20195;-66
2022/04/14 00:07:20;;;;;;;4.20;3.87;;;;;;;9.65;67.63;99928.81;5111457;28;20305;-66
2022/04/14 00:09:47;;;;;;;4.57;4.20;;;;;;;9.57;68.51;99925.53;5110947;28;20214;-66
2022/04/14 00:12:15;;;;;;;4.10;3.80;;;;;;;9.52;69.31;99932.47;5111037;28;20285;-66
2022/04/14 00:14:42;;;;;;;4.17;3.97;;;;;;;9.53;69.31;99934.16;5111252;28;20297;-66
2022/04/14 00:17:12;;;;;;;4.13;3.93;;;;;;;9.47;69.72;99930.81;5111148;28;20194;-66
2022/04/14 00:19:39;;;;;;;4.37;4.17;;;;;;;9.26;70.04;99933.75;5111289;28;20213;-67
2022/04/14 00:22:06;;;;;;;5.77;4.80;;;;;;;9.09;70.77;99940.84;5111284;28;20194;-66
2022/04/14 00:24:33;;;;;;;4.80;4.40;;;;;;;8.95;71.79;99946.16;5111123;28;20774;-66
2022/04/14 00:27:00;;;;;;;5.33;4.80;;;;;;;8.98;71.43;99940.19;5110940;28;20214;-66
2022/04/14 00:29:28;;;;;;;4.83;3.97;;;;;;;8.88;71.11;99943.72;5110299;28;20290;-66
2022/04/14 00:31:55;;;;;;;5.00;4.70;;;;;;;8.85;71.72;99938.66;5112911;28;20293;-66
2022/04/14 00:34:22;;;;;;;4.20;4.00;;;;;;;8.86;71.73;99941.19;5114074;28;20210;-66
2022/04/14 00:36:49;;;;;;;4.60;4.20;;;;;;;8.94;71.19;99941.94;5114995;28;20289;-66
2022/04/14 00:39:15;;;;;;;3.87;3.67;;;;;;;9.01;71.06;99950.34;5114807;28;20640;-66
2022/04/14 00:41:43;;;;;;;4.03;3.83;;;;;;;9.04;70.57;99945.19;5113856;27;20661;-66
2022/04/14 00:44:10;;;;;;;4.03;3.80;;;;;;;9.03;70.69;99947.75;5114423;28;20738;-67
2022/04/14 00:46:38;;;;;;;8.57;4.47;;;;;;;9.06;70.63;99942.59;5109699;28;20210;-67
2022/04/14 00:49:05;;;;;;;6.33;5.73;;;;;;;8.94;70.24;99941.06;5114815;28;20210;-66
2022/04/14 00:51:31;;;;;;;5.50;5.10;;;;;;;8.80;70.73;99940.44;5114525;28;20574;-66
2022/04/14 00:53:58;;;;;;;4.60;4.40;;;;;;;8.77;70.75;99935.34;5114472;28;20658;-66
2022/04/14 00:56:25;;;;;;;7.67;6.97;;;;;;;8.73;71.72;99943.94;5114948;27;20225;-66
2022/04/14 00:58:52;;;;;;;7.60;6.93;;;;;;;8.77;71.52;99945.59;5117601;27;20674;-65
2022/04/14 01:01:20;;;;;;;7.27;6.77;;;;;;;8.77;71.49;99945.59;5114509;28;20206;-66
2022/04/14 01:03:49;;;;;;;8.03;7.30;;;;;;;8.79;71.67;99952.34;5114756;28;20199;-66
2022/04/14 01:06:19;;;;;;;7.83;7.30;;;;;;;8.82;71.81;99948.94;5113014;28;20195;-66
2022/04/14 01:09:16;;;;;;;7.63;7.00;;;;;;;8.81;71.81;99957.47;5112970;28;20198;-66
2022/04/14 01:11:35;;;;;;;7.13;6.50;;;;;;;8.79;71.83;99964.28;5113223;27;20222;-67
2022/04/14 01:14:02;;;;;;;6.60;6.00;;;;;;;8.79;71.77;99969.41;5112501;28;20222;-66
2022/04/14 01:16:29;;;;;;;6.47;6.07;;;;;;;8.77;71.63;99966.03;5112146;28;20289;-66
2022/04/14 01:18:57;;;;;;;5.53;5.17;;;;;;;8.77;71.87;99968.59;5112317;28;20658;-65
2022/04/14 01:21:27;;;;;;;4.97;4.67;;;;;;;8.77;72.10;99966.88;5113647;27;20218;-66
2022/04/14 01:23:56;;;;;;;5.70;5.27;;;;;;;8.76;72.04;99960.06;5114251;28;20247;-66
2022/04/14 01:26:23;;;;;;;4.97;4.63;;;;;;;8.76;71.73;99969.44;5115184;27;20545;-67
2022/04/14 01:28:50;;;;;;;5.30;4.67;;;;;;;8.72;71.47;99972.94;5113020;28;20881;-66
2022/04/14 01:31:16;;;;;;;4.27;3.97;;;;;;;8.58;72.00;99968.00;5112579;28;20282;-66
2022/04/14 01:33:43;;;;;;;7.70;5.27;;;;;;;8.36;72.95;99975.09;5115026;27;20198;-66
2022/04/14 01:36:10;;;;;;;5.40;4.57;;;;;;;8.17;73.56;99942.94;5113763;28;20285;-66
2022/04/14 01:38:38;;;;;;;5.20;4.27;;;;;;;8.33;73.38;99975.13;5113564;28;20757;-66
2022/04/14 01:41:06;;;;;;;6.30;4.73;;;;;;;8.30;73.13;99970.03;5114006;27;20637;-66
2022/04/14 01:43:33;;;;;;;5.03;4.63;;;;;;;8.28;73.50;99966.66;5112945;27;20226;-66
2022/04/14 01:46:00;;;;;;;4.50;4.20;;;;;;;8.27;73.13;99972.59;5113856;27;20662;-66
2022/04/14 01:48:27;;;;;;;4.60;4.30;;;;;;;8.22;73.26;99961.59;5113677;28;20210;-66
2022/04/14 01:50:54;;;;;;;4.40;4.10;;;;;;;8.28;73.07;99971.78;5113811;28;20277;-66
2022/04/14 01:53:21;;;;;;;4.20;3.87;;;;;;;8.24;73.06;99972.63;5113500;28;20198;-66
2022/04/14 01:55:48;;;;;;;4.57;4.33;;;;;;;8.06;73.08;99954.13;5113444;28;20285;-66
2022/04/14 01:58:16;;;;;;;4.10;3.70;;;;;;;8.09;73.33;99972.81;5113365;27;20206;-66
2022/04/14 02:00:43;;;;;;;4.03;3.83;;;;;;;8.08;73.65;99978.78;5115150;27;20206;-66
2022/04/14 02:03:10;;;;;;;3.90;3.70;;;;;;;8.10;73.77;99982.19;5113591;28;20671;-66
2022/04/14 02:05:37;;;;;;;4.00;3.80;;;;;;;8.00;74.22;99970.38;5113158;28;20286;-66
2022/04/14 02:08:04;;;;;;;4.47;4.07;;;;;;;8.05;73.90;99977.97;5113239;28;20249;-66
2022/04/14 02:10:31;;;;;;;4.90;4.60;;;;;;;8.05;74.24;99983.91;5113197;28;20288;-66
2022/04/14 02:12:59;;;;;;;4.23;3.93;;;;;;;8.01;73.85;99989.09;5113263;28;20662;-66
2022/04/14 02:15:27;;;;;;;4.03;3.83;;;;;;;7.98;73.60;99984.84;5113043;27;20674;-65
2022/04/14 02:17:54;;;;;;;3.50;3.30;;;;;;;7.84;73.38;99979.03;5113010;28;20206;-66
2022/04/14 02:20:21;;;;;;;4.10;3.70;;;;;;;7.85;73.72;99985.84;5113214;28;20203;-66
2022/04/14 02:22:47;;;;;;;3.07;2.83;;;;;;;7.76;73.23;99985.91;5112829;28;20685;-66
2022/04/14 02:25:14;;;;;;;3.77;3.57;;;;;;;7.76;73.57;99996.13;5112177;28;20226;-66
2022/04/14 02:27:41;;;;;;;3.60;3.40;;;;;;;7.75;73.58;99989.34;5112540;27;20222;-66
2022/04/14 02:30:09;;;;;;;3.67;3.37;;;;;;;7.75;74.54;99990.19;5112086;28;20289;-66
2022/04/14 02:32:37;;;;;;;3.43;3.23;;;;;;;7.74;73.95;100000.41;5112855;27;20601;-66
2022/04/14 02:35:05;;;;;;;3.83;3.63;;;;;;;7.74;74.14;100003.81;5112688;28;20199;-66
2022/04/14 02:37:32;;;;;;;3.57;3.40;;;;;;;7.75;74.07;100009.75;5112458;28;20190;-66
2022/04/14 02:39:58;;;;;;;3.90;3.70;;;;;;;7.73;73.50;100002.09;5112565;27;20285;-66
2022/04/14 02:42:25;;;;;;;6.30;3.83;;;;;;;7.73;73.40;99998.69;5112594;28;20282;-66
2022/04/14 02:44:52;;;;;;;3.43;3.33;;;;;;;7.72;73.18;99997.84;5112550;28;20195;-66
2022/04/14 02:47:19;;;;;;;3.33;3.13;;;;;;;7.72;72.57;99994.47;5114030;27;20305;-66
2022/04/14 02:49:47;;;;;;;2.93;2.73;;;;;;;7.59;71.26;99990.34;5112244;28;20281;-66
2022/04/14 02:52:14;;;;;;;2.93;2.73;;;;;;;7.36;70.71;99993.94;5112630;27;20285;-66
2022/04/14 02:54:41;;;;;;;3.40;3.10;;;;;;;7.20;70.51;99991.50;5111100;28;20203;-66
2022/04/14 02:57:09;;;;;;;3.17;2.97;;;;;;;7.11;70.52;99989.84;5110578;28;20210;-66
2022/04/14 02:59:37;;;;;;;3.50;3.27;;;;;;;6.89;72.20;99988.28;5111451;28;20274;-66
2022/04/14 03:02:05;;;;;;;2.80;2.63;;;;;;;6.93;71.75;99984.88;5112336;28;20187;-66
2022/04/14 03:04:32;;;;;;;3.77;2.97;;;;;;;6.92;72.17;99980.63;5112185;28;20234;-66
2022/04/14 03:07:00;;;;;;;2.90;2.70;;;;;;;6.93;71.78;99979.78;5111913;28;20209;-66
2022/04/14 03:09:27;;;;;;;3.07;2.87;;;;;;;6.94;71.70;99990.81;5112176;28;20720;-66
2022/04/14 03:11:54;;;;;;;2.47;2.30;;;;;;;6.87;70.90;99992.56;5112012;28;20198;-65
2022/04/14 03:14:21;;;;;;;2.33;2.23;;;;;;;6.64;71.87;99992.69;5111077;28;20214;-65
2022/04/14 03:16:48;;;;;;;2.80;2.70;;;;;;;6.58;73.00;99986.78;5110110;28;20605;-66
2022/04/14 03:19:14;;;;;;;2.70;2.60;;;;;;;6.47;74.40;99985.97;5110257;28;20202;-66
2022/04/14 03:21:41;;;;;;;2.73;2.63;;;;;;;6.56;74.89;99988.50;5109776;28;20289;-66
2022/04/14 03:24:10;;;;;;;3.10;2.90;;;;;;;6.57;74.78;99990.16;5111359;27;20206;-66
2022/04/14 03:26:37;;;;;;;3.00;2.90;;;;;;;6.65;75.72;100003.72;5108214;27;20310;-66
2022/04/14 03:29:03;;;;;;;3.03;2.90;;;;;;;6.64;75.72;99999.47;5109637;28;20225;-65
2022/04/14 03:31:30;;;;;;;3.03;2.93;;;;;;;6.50;76.36;100003.78;5111575;28;20199;-66
2022/04/14 03:33:57;;;;;;;3.43;3.23;;;;;;;6.54;76.44;100005.47;5111419;28;20590;-65
2022/04/14 03:36:24;;;;;;;3.40;3.20;;;;;;;6.57;76.25;100005.44;5113002;27;20281;-66
2022/04/14 03:38:51;;;;;;;3.60;2.90;;;;;;;6.58;76.48;100007.16;5111562;28;20215;-66
2022/04/14 03:41:19;;;;;;;3.73;3.53;;;;;;;6.59;76.78;100013.94;5111239;28;20281;-66
2022/04/14 03:43:46;;;;;;;2.73;2.63;;;;;;;6.63;76.67;100018.16;5111518;28;20201;-66
2022/04/14 03:46:14;;;;;;;3.23;3.03;;;;;;;6.63;76.56;100019.00;5111450;28;20195;-66
2022/04/14 03:48:43;;;;;;;3.10;3.00;;;;;;;6.64;76.78;100022.41;5111458;28;20210;-66
2022/04/14 03:51:10;;;;;;;3.87;3.53;;;;;;;6.63;76.71;100026.66;5111487;28;20198;-65
2022/04/14 03:53:37;;;;;;;3.30;3.20;;;;;;;6.53;77.08;100031.78;5111459;28;20194;-66
2022/04/14 03:56:05;;;;;;;3.80;3.60;;;;;;;6.50;77.47;100031.78;5111209;28;20285;-65
2022/04/14 03:58:33;;;;;;;2.80;2.60;;;;;;;6.37;77.56;100007.22;5111988;28;20274;-66
2022/04/14 04:01:00;;;;;;;3.33;3.13;;;;;;;6.51;77.54;100030.94;5111243;28;20286;-66
2022/04/14 04:03:27;;;;;;;2.87;2.77;;;;;;;6.45;77.75;100031.81;5111038;28;20199;-66
2022/04/14 04:05:54;;;;;;;3.63;2.80;;;;;;;6.44;78.09;100039.47;5107363;28;20256;-66
2022/04/14 04:08:22;;;;;;;3.23;3.07;;;;;;;6.45;78.22;100042.00;5108868;28;20606;-66
2022/04/14 04:10:49;;;;;;;3.87;2.73;;;;;;;6.39;77.97;100025.91;5109417;28;20210;-66
2022/04/14 04:13:16;;;;;;;3.00;2.80;;;;;;;6.51;77.50;100038.59;5109006;28;20225;-65
2022/04/14 04:15:44;;;;;;;2.63;2.50;;;;;;;6.55;77.56;100037.72;5111020;28;20674;-66
2022/04/14 04:18:11;;;;;;;2.60;2.50;;;;;;;6.50;77.09;100036.88;5108800;28;20186;-66
2022/04/14 04:20:38;;;;;;;2.70;2.60;;;;;;;6.56;77.09;100050.44;5110418;27;20294;-66
2022/04/14 04:23:05;;;;;;;2.80;2.70;;;;;;;6.48;77.36;100031.81;5110471;28;20693;-66
2022/04/14 04:25:33;;;;;;;3.37;3.27;;;;;;;6.55;77.39;100027.53;5110452;28;20220;-66
2022/04/14 04:28:00;;;;;;;3.50;3.30;;;;;;;6.73;77.40;100060.56;5111064;28;20689;-66
2022/04/14 04:30:26;;;;;;;3.83;3.63;;;;;;;6.82;77.78;100068.16;5110830;28;20198;-66
2022/04/14 04:32:55;;;;;;;3.87;3.60;;;;;;;6.97;78.01;100060.47;5111519;28;20286;-67
2022/04/14 04:35:22;;;;;;;8.10;3.43;;;;;;;7.05;77.60;100045.97;5111188;28;20590;-66
2022/04/14 04:37:49;;;;;;;3.87;3.50;;;;;;;7.36;77.32;100062.81;5110603;28;20313;-66
2022/04/14 04:40:18;;;;;;;7.10;3.33;;;;;;;7.55;76.71;100063.50;5110852;28;20205;-66
2022/04/14 04:42:45;;;;;;;4.10;3.70;;;;;;;7.75;75.72;100068.47;5110924;28;20642;-66
2022/04/14 04:45:12;;;;;;;4.03;3.83;;;;;;;7.95;75.12;100074.22;5111904;28;20527;-66
2022/04/14 04:47:39;;;;;;;3.77;3.50;;;;;;;8.15;75.12;100067.22;5110611;28;20294;-66
2022/04/14 04:50:08;;;;;;;4.20;3.90;;;;;;;8.35;73.36;100065.34;5110957;28;20730;-67
2022/04/14 04:52:36;;;;;;;4.50;4.10;;;;;;;8.53;71.79;100068.59;5109905;28;20206;-66
2022/04/14 04:55:03;;;;;;;4.50;4.20;;;;;;;8.74;70.81;100073.44;5110803;28;20306;-66
2022/04/14 04:57:30;;;;;;;3.73;3.50;;;;;;;8.93;70.40;100077.44;5111036;28;20208;-66
2022/04/14 04:59:57;;;;;;;3.80;3.50;;;;;;;9.13;70.34;100078.06;5112150;28;20285;-66
2022/04/14 05:02:23;;;;;;;6.63;4.20;;;;;;;9.35;69.71;100079.44;5110143;28;20203;-67
2022/04/14 05:04:50;;;;;;;5.13;4.73;;;;;;;9.58;69.57;100080.81;5110691;28;20198;-66
2022/04/14 05:07:19;;;;;;;5.50;5.00;;;;;;;9.78;69.97;100068.53;5110528;28;20298;-66
2022/04/14 05:09:45;;;;;;;5.07;4.43;;;;;;;9.91;69.15;100059.78;5110464;28;20214;-66
2022/04/14 05:12:12;;;;;;;8.87;4.50;;;;;;;10.17;68.84;100075.59;5110791;28;20277;-66
2022/04/14 05:14:39;;;;;;;4.93;4.63;;;;;;;10.32;68.19;100077.88;5110886;28;20551;-67
2022/04/14 05:17:06;;;;;;;5.57;4.20;;;;;;;10.50;69.26;100077.50;5109773;28;20286;-66
2022/04/14 05:19:33;;;;;;;4.53;4.27;;;;;;;10.61;67.81;100073.91;5115535;27;20191;-66
2022/04/14 05:22:01;;;;;;;5.37;4.43;;;;;;;10.76;67.08;100076.19;5113295;27;20291;-66
2022/04/14 05:24:31;;;;;;;4.37;4.17;;;;;;;10.94;67.22;100080.94;5114365;27;20202;-66
2022/04/14 05:26:58;;;;;;;7.80;4.17;;;;;;;11.07;67.22;100064.41;5114244;28;20203;-66
2022/04/14 05:29:25;;;;;;;4.63;4.27;;;;;;;11.34;66.56;100079.16;5115986;27;20690;-66
2022/04/14 05:31:52;;;;;;;4.93;4.40;;;;;;;11.54;65.36;100082.13;5113705;28;20221;-66
2022/04/14 05:34:19;;;;;;;4.90;4.60;;;;;;;11.72;65.56;100080.06;5113445;27;20210;-68
2022/04/14 05:36:46;;;;;;;5.43;4.77;;;;;;;11.92;63.57;100083.00;5111164;27;20293;-68
2022/04/14 05:39:12;;;;;;;5.03;4.63;;;;;;;12.09;63.77;100084.25;5113091;27;20225;-67
2022/04/14 05:41:41;;;;;;;5.23;4.73;;;;;;;12.24;61.65;100092.47;5114356;27;20194;-67
2022/04/14 05:44:08;;;;;;;5.60;4.43;;;;;;;12.33;61.08;100090.50;5113670;27;20252;-67
2022/04/14 05:46:35;;;;;;;5.03;4.77;;;;;;;12.47;61.59;100083.22;5111914;28;20194;-68
2022/04/14 05:49:02;;;;;;;4.73;4.40;;;;;;;12.73;61.88;100089.41;5110962;28;20246;-68
2022/04/14 05:51:29;;;;;;;4.63;4.43;;;;;;;12.92;61.83;100100.88;5112137;28;20285;-67
2022/04/14 05:53:56;;;;;;;5.30;4.80;;;;;;;13.18;60.60;100098.44;5111694;28;20328;-67
2022/04/14 05:56:23;;;;;;;5.50;4.90;;;;;;;13.40;59.79;100094.31;5111898;27;20195;-67
2022/04/14 05:58:51;;;;;;;4.73;4.30;;;;;;;13.58;58.48;100083.44;5111701;28;20289;-65
2022/04/14 06:01:18;;;;;;;4.87;4.47;;;;;;;13.72;56.92;100090.72;5111955;28;20271;-65
2022/04/14 06:03:45;;;;;;;4.73;4.20;;;;;;;14.00;54.49;100095.81;5111764;28;20210;-65
2022/04/14 06:06:13;;;;;;;5.53;4.10;;;;;;;14.19;53.53;100094.31;5113109;27;20191;-65
2022/04/14 06:08:40;;;;;;;4.47;4.27;;;;;;;14.39;52.85;100086.78;5110783;27;20219;-65
2022/04/14 06:11:09;;;;;;;4.80;4.50;;;;;;;14.46;53.52;100100.31;5111942;27;20201;-65
2022/04/14 06:13:36;;;;;;;5.10;4.80;;;;;;;14.64;55.03;100100.50;5112169;28;20199;-65
2022/04/14 06:16:05;;;;;;;4.03;3.83;;;;;;;14.90;53.09;100102.13;5108997;28;20207;-65
2022/04/14 06:18:32;;;;;;;4.07;3.77;;;;;;;14.88;51.09;100097.94;5110007;28;20214;-65
2022/04/14 06:20:59;;;;;;;4.63;4.40;;;;;;;15.02;49.96;100106.03;5108503;28;20203;-65
2022/04/14 06:23:26;;;;;;;3.83;3.53;;;;;;;15.12;50.42;100097.03;5111237;27;20632;-66
2022/04/14 06:25:53;;;;;;;3.53;3.37;;;;;;;15.16;50.44;100089.09;5110264;28;20201;-66
2022/04/14 06:28:20;;;;;;;3.93;3.73;;;;;;;15.36;50.28;100103.84;5112261;28;20195;-66
2022/04/14 06:30:47;;;;;;;4.43;4.13;;;;;;;15.58;49.86;100112.47;5112049;27;20205;-66
2022/04/14 06:33:16;;;;;;;5.20;4.83;;;;;;;15.58;48.94;100116.78;5112989;28;20232;-66
2022/04/14 06:35:43;;;;;;;4.40;4.10;;;;;;;15.88;49.76;100109.56;5112703;28;20198;-66
2022/04/14 06:38:10;;;;;;;4.07;3.87;;;;;;;16.12;47.27;100118.94;5112224;28;20219;-66
2022/04/14 06:40:37;;;;;;;4.80;4.50;;;;;;;16.09;48.13;100116.47;5114208;27;20649;-66
2022/04/14 06:43:04;;;;;;;5.50;4.87;;;;;;;16.25;47.61;100114.94;5114837;27;20201;-66
2022/04/14 06:45:31;;;;;;;4.23;4.03;;;;;;;16.21;49.40;100118.53;5116029;27;20574;-65
2022/04/14 06:47:58;;;;;;;4.40;4.10;;;;;;;16.43;49.99;100118.47;5114271;27;20670;-66
2022/04/14 06:50:27;;;;;;;4.00;3.80;;;;;;;16.75;46.83;100116.22;5112108;27;20238;-68
2022/04/14 06:52:54;;;;;;;4.40;4.13;;;;;;;16.95;47.49;100122.25;5112502;28;20201;-65
2022/04/14 06:55:22;;;;;;;4.90;4.50;;;;;;;17.14;48.31;100120.50;5113210;27;20234;-66
2022/04/14 06:57:49;;;;;;;4.23;3.93;;;;;;;17.35;45.62;100129.88;5112634;28;20198;-65
2022/04/14 07:00:16;;;;;;;4.50;4.20;;;;;;;17.49;47.29;100131.84;5113099;27;20225;-61
2022/04/14 07:02:47;;;;;;;4.80;4.30;;;;;;;17.65;46.24;100135.44;5112212;28;20582;-62
2022/04/14 07:05:14;;;;;;;4.30;4.00;;;;;;;17.84;45.60;100134.47;5111963;28;20281;-61
2022/04/14 07:07:44;;;;;;;3.63;3.43;;;;;;;18.04;45.27;100143.88;5112419;28;20195;-61
2022/04/14 07:10:12;;;;;;;4.43;4.20;;;;;;;18.01;44.65;100138.84;5111984;28;20301;-62
2022/04/14 07:12:40;;;;;;;3.70;3.50;;;;;;;18.19;42.50;100139.72;5112619;28;20195;-62
2022/04/14 07:15:09;;;;;;;4.27;3.97;;;;;;;18.25;41.81;100132.47;5111436;28;20201;-63
2022/04/14 07:17:37;;;;;;;4.10;3.80;;;;;;;18.36;42.87;100131.91;5111361;28;20202;-62
2022/04/14 07:20:05;;;;;;;3.67;3.33;;;;;;;18.54;42.97;100133.63;5112270;28;20212;-62
2022/04/14 07:22:43;;;;;;;3.83;3.63;;;;;;;18.59;42.60;100121.22;5112222;28;20260;-62
2022/04/14 07:25:11;;;;;;;4.57;4.23;;;;;;;18.62;44.88;100126.25;5111717;28;20624;-62
2022/04/14 07:27:38;;;;;;;4.30;4.00;;;;;;;18.68;42.66;100118.16;5111328;28;20275;-62
2022/04/14 07:30:06;;;;;;;3.70;3.50;;;;;;;18.68;42.44;100135.50;5111894;28;20214;-62
2022/04/14 07:32:37;;;;;;;4.57;4.27;;;;;;;18.83;41.54;100134.72;5110860;28;20198;-62
2022/04/14 07:35:06;;;;;;;4.83;4.43;;;;;;;18.77;40.00;100114.25;5112127;28;20211;-62
2022/04/14 07:37:33;;;;;;;4.37;4.03;;;;;;;18.86;41.63;100125.00;5111765;28;20194;-62
2022/04/14 07:40:01;;;;;;;4.53;4.23;;;;;;;18.97;42.71;100116.63;5110760;28;20206;-62
2022/04/14 07:42:32;;;;;;;4.40;4.10;;;;;;;19.08;40.78;100119.50;5111724;28;20206;-62
2022/04/14 07:45:00;;;;;;;4.17;3.93;;;;;;;19.19;44.15;100111.94;5112153;28;20275;-62
2022/04/14 07:47:27;;;;;;;4.57;4.37;;;;;;;19.14;41.63;100124.38;5111805;27;20620;-62
2022/04/14 07:49:54;;;;;;;4.10;3.90;;;;;;;19.41;42.72;100122.06;5112032;28;20206;-62
2022/04/14 07:52:21;;;;;;;4.30;4.00;;;;;;;19.58;42.71;100116.75;5109847;28;20281;-62
2022/04/14 07:54:48;;;;;;;4.53;4.33;;;;;;;19.66;38.92;100125.00;5111417;27;20282;-61
2022/04/14 07:57:16;;;;;;;4.47;4.17;;;;;;;19.54;39.50;100123.06;5113864;27;20638;-63
2022/04/14 07:59:43;;;;;;;4.40;4.17;;;;;;;19.64;38.70;100129.44;5111459;28;20286;-62
2022/04/14 08:02:10;;;;;;;4.13;3.80;;;;;;;19.48;40.51;100120.81;5112500;27;20194;-62
2022/04/14 08:04:38;;;;;;;3.53;3.33;;;;;;;19.55;40.52;100119.53;5111622;28;20581;-62
2022/04/14 08:07:05;;;;;;;6.33;4.43;;;;;;;19.41;37.81;100121.22;5111392;28;20201;-62
2022/04/14 08:09:32;;;;;;;3.93;3.73;;;;;;;19.63;39.62;100117.34;5113115;28;20690;-62
2022/04/14 08:11:59;;;;;;;4.27;3.90;;;;;;;19.84;39.67;100116.13;5112375;28;20293;-62
2022/04/14 08:14:27;;;;;;;4.27;3.90;;;;;;;19.66;38.59;100121.53;5112005;28;20301;-62
2022/04/14 08:16:57;;;;;;;3.43;3.33;;;;;;;19.39;38.64;100116.91;5113571;28;20202;-62
2022/04/14 08:19:24;;;;;;;4.60;4.37;;;;;;;19.60;38.54;100116.69;5110921;28;20272;-63
2022/04/14 08:21:51;;;;;;;3.87;3.63;;;;;;;19.71;38.29;100117.75;5110653;28;20666;-62
2022/04/14 08:24:18;;;;;;;4.30;4.10;;;;;;;19.76;37.67;100118.34;5111402;28;20285;-62
2022/04/14 08:26:45;;;;;;;3.70;3.37;;;;;;;19.87;38.73;100109.94;5110638;28;20195;-62
2022/04/14 08:29:12;;;;;;;3.70;3.50;;;;;;;19.92;37.69;100100.09;5111409;28;20219;-62
2022/04/14 08:31:41;;;;;;;3.47;3.17;;;;;;;20.13;36.57;100111.03;5110831;28;20199;-62
2022/04/14 08:34:08;;;;;;;3.23;2.30;;;;;;;20.14;35.55;100110.94;5111328;28;20330;-62
2022/04/14 08:36:36;;;;;;;2.80;2.67;;;;;;;20.35;35.85;100106.28;5110962;28;20230;-62
2022/04/14 08:39:03;;;;;;;3.67;3.47;;;;;;;20.21;34.67;100104.47;5108303;28;20211;-62
2022/04/14 08:41:35;;;;;;;3.63;3.43;;;;;;;20.23;37.37;100093.94;5107408;28;20293;-62
2022/04/14 08:44:05;;;;;;;3.17;3.00;;;;;;;20.35;37.50;100103.69;5109677;28;20714;-62
2022/04/14 08:46:32;;;;;;;3.50;3.30;;;;;;;20.05;36.02;100088.06;5110093;28;20578;-62
2022/04/14 08:49:00;;;;;;;3.73;3.30;;;;;;;20.21;34.88;100093.19;5108977;28;20690;-62
2022/04/14 08:51:29;;;;;;;3.47;3.27;;;;;;;20.30;34.54;100092.69;5110728;28;20206;-62
2022/04/14 08:53:57;;;;;;;3.60;3.40;;;;;;;20.54;35.05;100083.44;5113760;28;20277;-62
2022/04/14 08:56:25;;;;;;;3.10;2.97;;;;;;;20.65;33.95;100078.38;5114599;28;20196;-62
2022/04/14 08:58:55;;;;;;;3.60;3.40;;;;;;;20.50;34.03;100081.94;5114208;28;20286;-62
2022/04/14 09:01:22;;;;;;;3.07;2.87;;;;;;;20.52;33.70;100077.44;5114442;28;20651;-62
2022/04/14 09:03:49;;;;;;;3.70;3.13;;;;;;;20.84;33.84;100078.13;5114222;28;20291;-62
2022/04/14 09:06:17;;;;;;;3.10;2.90;;;;;;;20.99;34.40;100073.72;5112769;28;20205;-62
2022/04/14 09:08:46;;;;;;;3.40;3.20;;;;;;;20.84;31.67;100076.31;5113027;28;20596;-62
2022/04/14 09:11:13;;;;;;;3.07;2.73;;;;;;;21.00;32.99;100070.19;5112411;28;20214;-62
2022/04/14 09:13:43;;;;;;;3.50;3.20;;;;;;;20.77;32.83;100075.06;5114462;28;20738;-63
2022/04/14 09:16:10;;;;;;;2.97;2.77;;;;;;;20.61;33.43;100065.66;5114020;28;20767;-62
2022/04/14 09:18:37;;;;;;;2.40;2.30;;;;;;;20.67;34.13;100068.72;5114252;28;20290;-62
2022/04/14 09:21:05;;;;;;;3.10;2.90;;;;;;;20.74;34.25;100067.41;5113917;28;20192;-62
2022/04/14 09:23:36;;;;;;;3.00;2.80;;;;;;;20.87;34.40;100057.09;5113798;28;20190;-62
2022/04/14 09:26:14;;;;;;;2.87;2.77;;;;;;;20.99;35.52;100047.66;5113387;28;20222;-63
2022/04/14 09:28:42;;;;;;;3.10;2.77;;;;;;;20.89;32.80;100050.84;5115745;27;20202;-62
2022/04/14 09:31:11;;;;;;;2.27;2.17;;;;;;;20.71;33.07;100049.34;5114457;27;20295;-63
2022/04/14 09:33:46;;;;;;;3.37;3.10;;;;;;;20.69;32.67;100039.97;5113983;28;20199;-62
2022/04/14 09:36:15;;;;;;;2.87;2.77;;;;;;;20.51;32.96;100047.13;5113610;28;20195;-63
2022/04/14 09:38:56;;;;;;;3.07;2.77;;;;;;;20.25;31.83;100047.84;5114180;28;20223;-62
2022/04/14 09:41:30;;;;;;;2.73;2.53;;;;;;;19.76;32.11;100042.91;5114493;27;20680;-62
2022/04/14 09:43:59;;;;;;;4.30;4.00;;;;;;;19.81;35.32;100042.59;5113475;27;20813;-62
2022/04/14 09:46:26;;;;;;;3.40;3.10;;;;;;;19.88;35.29;100039.56;5112808;28;20195;-62
2022/04/14 09:49:06;;;;;;;3.57;3.30;;;;;;;19.93;32.67;100037.53;5111201;27;20194;-63
2022/04/14 09:51:35;;;;;;;3.13;2.93;;;;;;;20.01;32.79;100033.66;5112081;28;20230;-62
2022/04/14 09:54:13;;;;;;;3.47;3.27;;;;;;;20.05;35.06;100025.59;5113216;27;20206;-62
2022/04/14 09:56:46;;;;;;;3.57;3.33;;;;;;;20.28;35.39;100011.22;5111107;28;20190;-62
2022/04/14 09:59:15;;;;;;;3.00;2.83;;;;;;;20.50;34.50;100010.75;5111446;27;20248;-62
2022/04/14 10:01:43;;;;;;;3.83;3.40;;;;;;;20.35;34.36;100007.34;5111615;28;20193;-62
2022/04/14 10:04:28;;;;;;;3.30;3.10;;;;;;;20.52;34.82;100017.53;5109881;28;20962;-63
2022/04/14 10:07:10;;;;;;;3.30;3.00;;;;;;;20.86;35.82;100019.75;5109603;28;20230;-62
2022/04/14 10:09:40;;;;;;;2.97;2.73;;;;;;;21.05;31.85;100009.00;5110507;28;20215;-62
2022/04/14 10:12:34;;;;;;;3.13;3.03;;;;;;;21.19;33.75;100016.81;5111573;28;20222;-63
2022/04/14 10:15:07;;;;;;;9.13;3.63;;;;;;;21.08;33.51;100018.38;5088239;28;20195;-62
2022/04/14 10:17:37;;;;;;;3.17;2.83;;;;;;;20.81;31.08;100011.38;5112061;28;20581;-63
2022/04/14 10:20:07;;;;;;;3.00;2.43;;;;;;;20.98;31.30;100012.91;5111601;28;20734;-63
2022/04/14 10:22:36;;;;;;;2.63;2.53;;;;;;;21.16;31.43;100010.97;5112675;28;20199;-62
2022/04/14 10:25:06;;;;;;;3.53;3.30;;;;;;;21.40;30.42;100015.44;5113133;28;20198;-62
2022/04/14 10:27:36;;;;;;;2.63;2.50;;;;;;;21.48;30.56;100017.53;5113498;28;20203;-63
2022/04/14 10:30:05;;;;;;;4.17;2.83;;;;;;;21.21;29.34;100009.72;5112965;27;20217;-62
2022/04/14 10:32:34;;;;;;;3.10;2.90;;;;;;;21.25;29.03;100011.22;5113156;28;20207;-63
2022/04/14 10:35:04;;;;;;;2.67;2.57;;;;;;;21.05;30.73;100005.56;5113156;28;20255;-60
2022/04/14 10:37:37;;;;;;;2.27;2.17;;;;;;;21.31;30.32;100009.97;5113135;28;20206;-62
2022/04/14 10:40:10;;;;;;;3.77;2.50;;;;;;;21.40;29.23;100004.16;5112984;28;20624;-63
2022/04/14 10:42:38;;;;;;;2.80;2.60;;;;;;;21.62;28.30;100001.81;5112761;28;20574;-62
2022/04/14 10:45:17;;;;;;;2.13;2.03;;;;;;;21.54;29.10;99988.44;5110962;28;20208;-62
2022/04/14 10:47:58;;;;;;;2.50;2.40;;;;;;;21.87;29.45;99991.41;5109029;28;20204;-62
2022/04/14 10:50:28;;;;;;;2.63;2.53;;;;;;;21.63;27.89;99998.28;5112807;28;20208;-62
2022/04/14 10:53:08;;;;;;;2.67;2.50;;;;;;;21.73;28.40;99996.72;5112412;28;20278;-62
2022/04/14 10:55:47;;;;;;;3.40;2.50;;;;;;;21.60;28.26;99995.03;5112938;28;20321;-62
2022/04/14 10:58:57;;;;;;;3.67;2.87;;;;;;;21.77;29.43;99992.97;5112243;28;20206;-62
2022/04/14 11:01:57;;;;;;;2.70;2.57;;;;;;;22.00;30.00;99985.41;5091264;28;20196;-62
2022/04/14 11:04:35;;;;;;;2.27;2.17;;;;;;;22.07;28.40;99986.66;5112781;28;21109;-62
2022/04/14 11:07:09;;;;;;;3.23;2.70;;;;;;;22.22;31.78;99986.44;5111392;28;20239;-63
2022/04/14 11:09:50;;;;;;;2.80;1.87;;;;;;;22.28;29.72;99966.91;5112155;28;20203;-63
2022/04/14 11:12:21;;;;;;;3.87;3.67;;;;;;;22.33;27.91;99980.47;5112185;28;20660;-62
2022/04/14 11:14:53;;;;;;;3.10;2.90;;;;;;;22.31;28.36;99975.38;5110778;28;20224;-64
2022/04/14 11:18:00;;;;;;;2.03;1.93;;;;;;;21.93;26.68;99978.00;5111826;28;20253;-62
2022/04/14 11:21:06;;;;;;;2.57;2.47;;;;;;;22.13;28.72;99967.97;5111800;27;20544;-62
2022/04/14 11:23:35;;;;;;;2.43;2.33;;;;;;;22.07;26.94;99965.78;5109269;27;20219;-63
2022/04/14 11:26:13;;;;;;;2.10;2.00;;;;;;;21.91;25.50;99953.75;5113085;27;20711;-64
2022/04/14 11:28:46;;;;;;;2.00;1.90;;;;;;;22.11;25.73;99954.16;5112886;27;20200;-63
2022/04/14 11:31:31;;;;;;;2.27;2.17;;;;;;;22.07;26.51;99957.94;5108722;28;20222;-63
2022/04/14 11:33:59;;;;;;;2.73;2.63;;;;;;;22.00;26.59;99956.69;5110808;28;20202;-62
2022/04/14 11:36:29;;;;;;;2.20;2.10;;;;;;;21.84;25.68;99955.06;5112111;28;20209;-63
2022/04/14 11:39:01;;;;;;;2.50;2.30;;;;;;;21.79;25.92;99958.94;5111554;28;20232;-62
2022/04/14 11:41:32;;;;;;;2.30;2.20;;;;;;;22.08;28.60;99949.16;5111496;28;20563;-62